sensor_id;sensor_type;location;lat;lon;timestamp;temperature;humidity
13835;DHT22;6988;52.614;13.500;2023-05-24T00:01:45;11.10;99.90
13835;DHT22;6988;52.614;13.500;2023-05-24T00:06:37;11.00;99.90
13835;DHT22;6988;52.614;13.500;2023-05-24T00:11:29;11.00;99.90
13835;DHT22;6988;52.614;13.500;2023-05-24T00:16:21;11.00;99.90
13835;DHT22;6988;52.614;13.500;2023-05-24T00:21:14;10.90;99.90
13835;DHT22;6988;52.614;13.500;2023-05-24T00:26:07;10.80;99.90
13835;DHT22;6988;52.614;13.500;2023-05-24T00:30:59;10.80;99.90
13835;DHT22;6988;52.614;13.500;2023-05-24T00:35:52;10.80;99.90
13835;DHT22;6988;52.614;13.500;2023-05-24T00:40:48;10.70;99.90
13835;DHT22;6988;52.614;13.500;2023-05-24T00:45:40;10.70;99.90
13835;DHT22;6988;52.614;13.500;2023-05-24T00:50:32;10.50;99.90
13835;DHT22;6988;52.614;13.500;2023-05-24T00:55:24;10.40;99.90
13835;DHT22;6988;52.614;13.500;2023-05-24T01:00:18;10.30;99.90
13835;DHT22;6988;52.614;13.500;2023-05-24T01:05:10;10.30;99.90
13835;DHT22;6988;52.614;13.500;2023-05-24T01:10:06;10.30;99.90
13835;DHT22;6988;52.614;13.500;2023-05-24T01:15:09;10.10;99.90
13835;DHT22;6988;52.614;13.500;2023-05-24T01:20:16;10.20;99.90
13835;DHT22;6988;52.614;13.500;2023-05-24T01:25:18;10.10;99.90
13835;DHT22;6988;52.614;13.500;2023-05-24T01:30:19;10.10;99.90
13835;DHT22;6988;52.614;13.500;2023-05-24T01:35:12;10.10;99.90
13835;DHT22;6988;52.614;13.500;2023-05-24T01:40:05;10.10;99.90
13835;DHT22;6988;52.614;13.500;2023-05-24T01:45:04;10.20;99.90
13835;DHT22;6988;52.614;13.500;2023-05-24T01:50:11;10.20;99.90
13835;DHT22;6988;52.614;13.500;2023-05-24T01:55:08;10.30;99.90
13835;DHT22;6988;52.614;13.500;2023-05-24T02:00:02;10.30;99.90
13835;DHT22;6988;52.614;13.500;2023-05-24T02:05:03;10.40;99.90
13835;DHT22;6988;52.614;13.500;2023-05-24T02:09:59;10.40;99.90
13835;DHT22;6988;52.614;13.500;2023-05-24T02:14:51;10.40;99.90
13835;DHT22;6988;52.614;13.500;2023-05-24T02:19:45;10.50;99.90
13835;DHT22;6988;52.614;13.500;2023-05-24T02:24:36;10.50;99.90
13835;DHT22;6988;52.614;13.500;2023-05-24T02:29:31;10.40;99.90
13835;DHT22;6988;52.614;13.500;2023-05-24T02:34:23;10.50;99.90
13835;DHT22;6988;52.614;13.500;2023-05-24T02:39:15;10.50;99.90
13835;DHT22;6988;52.614;13.500;2023-05-24T02:44:07;10.50;99.90
13835;DHT22;6988;52.614;13.500;2023-05-24T02:49:00;10.50;99.90
13835;DHT22;6988;52.614;13.500;2023-05-24T02:53:51;10.50;99.90
13835;DHT22;6988;52.614;13.500;2023-05-24T02:58:43;10.50;99.90
13835;DHT22;6988;52.614;13.500;2023-05-24T03:03:35;10.50;99.90
13835;DHT22;6988;52.614;13.500;2023-05-24T03:08:30;10.50;99.90
13835;DHT22;6988;52.614;13.500;2023-05-24T03:13:22;10.50;99.90
13835;DHT22;6988;52.614;13.500;2023-05-24T03:18:14;10.50;99.90
13835;DHT22;6988;52.614;13.500;2023-05-24T03:23:07;10.50;99.90
13835;DHT22;6988;52.614;13.500;2023-05-24T03:28:01;10.60;99.90
13835;DHT22;6988;52.614;13.500;2023-05-24T03:32:53;10.60;99.90
13835;DHT22;6988;52.614;13.500;2023-05-24T03:37:46;10.60;99.90
13835;DHT22;6988;52.614;13.500;2023-05-24T03:42:38;10.60;99.90
13835;DHT22;6988;52.614;13.500;2023-05-24T03:47:32;10.70;99.90
13835;DHT22;6988;52.614;13.500;2023-05-24T03:52:24;10.70;99.90
13835;DHT22;6988;52.614;13.500;2023-05-24T03:57:16;10.70;99.90
13835;DHT22;6988;52.614;13.500;2023-05-24T04:02:08;10.70;99.90
13835;DHT22;6988;52.614;13.500;2023-05-24T04:07:01;10.80;99.90
13835;DHT22;6988;52.614;13.500;2023-05-24T04:11:53;10.60;99.90
13835;DHT22;6988;52.614;13.500;2023-05-24T04:16:45;10.80;99.90
13835;DHT22;6988;52.614;13.500;2023-05-24T04:21:37;10.90;99.90
13835;DHT22;6988;52.614;13.500;2023-05-24T04:26:31;10.90;99.90
13835;DHT22;6988;52.614;13.500;2023-05-24T04:31:24;11.00;99.90
13835;DHT22;6988;52.614;13.500;2023-05-24T04:36:18;11.00;99.90
13835;DHT22;6988;52.614;13.500;2023-05-24T04:41:12;11.00;99.90
13835;DHT22;6988;52.614;13.500;2023-05-24T04:46:05;11.00;99.90
13835;DHT22;6988;52.614;13.500;2023-05-24T04:50:57;11.10;99.90
13835;DHT22;6988;52.614;13.500;2023-05-24T04:55:50;11.00;99.90
13835;DHT22;6988;52.614;13.500;2023-05-24T05:00:43;11.10;99.90
13835;DHT22;6988;52.614;13.500;2023-05-24T05:05:37;11.10;99.90
13835;DHT22;6988;52.614;13.500;2023-05-24T05:10:29;11.10;99.90
13835;DHT22;6988;52.614;13.500;2023-05-24T05:15:22;11.20;99.90
13835;DHT22;6988;52.614;13.500;2023-05-24T05:20:15;11.20;99.90
13835;DHT22;6988;52.614;13.500;2023-05-24T05:25:08;11.20;99.90
13835;DHT22;6988;52.614;13.500;2023-05-24T05:30:00;11.30;99.90
13835;DHT22;6988;52.614;13.500;2023-05-24T05:34:52;11.20;99.90
13835;DHT22;6988;52.614;13.500;2023-05-24T05:39:43;11.20;99.90
13835;DHT22;6988;52.614;13.500;2023-05-24T05:44:37;11.20;99.90
13835;DHT22;6988;52.614;13.500;2023-05-24T05:49:28;11.20;99.90
13835;DHT22;6988;52.614;13.500;2023-05-24T05:54:21;11.30;99.90
13835;DHT22;6988;52.614;13.500;2023-05-24T05:59:13;11.40;99.90
13835;DHT22;6988;52.614;13.500;2023-05-24T06:04:07;11.40;99.90
13835;DHT22;6988;52.614;13.500;2023-05-24T06:09:00;11.40;99.90
13835;DHT22;6988;52.614;13.500;2023-05-24T06:13:52;11.50;99.90
13835;DHT22;6988;52.614;13.500;2023-05-24T06:18:43;11.60;99.90
13835;DHT22;6988;52.614;13.500;2023-05-24T06:23:37;11.70;99.90
13835;DHT22;6988;52.614;13.500;2023-05-24T06:28:28;11.70;99.90
13835;DHT22;6988;52.614;13.500;2023-05-24T06:33:21;11.90;99.90
13835;DHT22;6988;52.614;13.500;2023-05-24T06:38:12;11.90;99.90
13835;DHT22;6988;52.614;13.500;2023-05-24T06:43:05;12.00;99.90
13835;DHT22;6988;52.614;13.500;2023-05-24T06:47:57;12.10;99.90
13835;DHT22;6988;52.614;13.500;2023-05-24T06:52:49;12.00;99.90
13835;DHT22;6988;52.614;13.500;2023-05-24T06:57:41;12.20;99.90
13835;DHT22;6988;52.614;13.500;2023-05-24T07:02:34;12.30;99.90
13835;DHT22;6988;52.614;13.500;2023-05-24T07:07:25;12.50;99.90
13835;DHT22;6988;52.614;13.500;2023-05-24T07:12:17;12.70;99.90
13835;DHT22;6988;52.614;13.500;2023-05-24T07:17:09;13.00;99.90
13835;DHT22;6988;52.614;13.500;2023-05-24T07:22:02;13.50;99.90
13835;DHT22;6988;52.614;13.500;2023-05-24T07:26:54;13.90;99.90
13835;DHT22;6988;52.614;13.500;2023-05-24T07:31:46;14.10;99.90
13835;DHT22;6988;52.614;13.500;2023-05-24T07:36:38;14.00;99.90
13835;DHT22;6988;52.614;13.500;2023-05-24T07:41:32;13.90;99.90
13835;DHT22;6988;52.614;13.500;2023-05-24T07:46:25;13.90;99.90
13835;DHT22;6988;52.614;13.500;2023-05-24T07:51:16;13.80;99.90
13835;DHT22;6988;52.614;13.500;2023-05-24T07:56:08;13.80;99.90
13835;DHT22;6988;52.614;13.500;2023-05-24T08:01:02;13.90;99.90
13835;DHT22;6988;52.614;13.500;2023-05-24T08:05:57;14.10;99.90
13835;DHT22;6988;52.614;13.500;2023-05-24T08:10:48;14.90;99.90
13835;DHT22;6988;52.614;13.500;2023-05-24T08:15:45;15.60;99.90
13835;DHT22;6988;52.614;13.500;2023-05-24T08:20:38;16.10;99.90
13835;DHT22;6988;52.614;13.500;2023-05-24T08:25:31;16.00;99.90
13835;DHT22;6988;52.614;13.500;2023-05-24T08:30:23;15.70;99.90
13835;DHT22;6988;52.614;13.500;2023-05-24T08:35:15;15.70;99.90
13835;DHT22;6988;52.614;13.500;2023-05-24T08:40:08;15.50;99.90
13835;DHT22;6988;52.614;13.500;2023-05-24T08:45:03;15.50;99.90
13835;DHT22;6988;52.614;13.500;2023-05-24T08:50:00;15.40;99.90
13835;DHT22;6988;52.614;13.500;2023-05-24T08:54:53;15.00;99.90
13835;DHT22;6988;52.614;13.500;2023-05-24T08:59:47;14.80;99.90
13835;DHT22;6988;52.614;13.500;2023-05-24T09:04:40;14.80;99.90
13835;DHT22;6988;52.614;13.500;2023-05-24T09:09:34;14.80;99.90
13835;DHT22;6988;52.614;13.500;2023-05-24T09:14:33;14.90;99.90
13835;DHT22;6988;52.614;13.500;2023-05-24T09:19:27;15.10;99.90
13835;DHT22;6988;52.614;13.500;2023-05-24T09:24:19;15.30;99.90
13835;DHT22;6988;52.614;13.500;2023-05-24T09:29:11;15.60;99.90
13835;DHT22;6988;52.614;13.500;2023-05-24T09:34:08;15.90;99.90
13835;DHT22;6988;52.614;13.500;2023-05-24T09:39:06;16.20;99.90
13835;DHT22;6988;52.614;13.500;2023-05-24T09:44:00;16.10;99.90
13835;DHT22;6988;52.614;13.500;2023-05-24T09:48:57;15.70;99.90
13835;DHT22;6988;52.614;13.500;2023-05-24T09:53:50;15.50;99.90
13835;DHT22;6988;52.614;13.500;2023-05-24T09:58:44;15.30;99.90
13835;DHT22;6988;52.614;13.500;2023-05-24T10:03:36;15.30;99.90
13835;DHT22;6988;52.614;13.500;2023-05-24T10:08:28;15.50;99.90
13835;DHT22;6988;52.614;13.500;2023-05-24T10:13:22;15.90;99.90
13835;DHT22;6988;52.614;13.500;2023-05-24T10:18:15;16.20;99.90
13835;DHT22;6988;52.614;13.500;2023-05-24T10:23:09;16.20;99.90
13835;DHT22;6988;52.614;13.500;2023-05-24T10:28:10;15.80;99.90
13835;DHT22;6988;52.614;13.500;2023-05-24T10:33:05;15.30;99.90
13835;DHT22;6988;52.614;13.500;2023-05-24T10:38:04;15.20;99.90
13835;DHT22;6988;52.614;13.500;2023-05-24T10:42:58;15.40;99.90
13835;DHT22;6988;52.614;13.500;2023-05-24T10:47:50;15.80;99.90
13835;DHT22;6988;52.614;13.500;2023-05-24T10:52:42;16.00;99.90
13835;DHT22;6988;52.614;13.500;2023-05-24T10:57:36;16.10;99.90
13835;DHT22;6988;52.614;13.500;2023-05-24T11:02:34;16.40;99.90
13835;DHT22;6988;52.614;13.500;2023-05-24T11:07:26;17.00;99.90
13835;DHT22;6988;52.614;13.500;2023-05-24T11:12:18;17.10;99.90
13835;DHT22;6988;52.614;13.500;2023-05-24T11:17:12;18.30;99.90
13835;DHT22;6988;52.614;13.500;2023-05-24T11:22:06;19.10;99.90
13835;DHT22;6988;52.614;13.500;2023-05-24T11:26:59;19.60;99.90
13835;DHT22;6988;52.614;13.500;2023-05-24T11:31:54;20.40;99.90
13835;DHT22;6988;52.614;13.500;2023-05-24T11:36:49;20.20;99.90
13835;DHT22;6988;52.614;13.500;2023-05-24T11:41:43;19.80;99.90
13835;DHT22;6988;52.614;13.500;2023-05-24T11:46:35;20.30;99.90
13835;DHT22;6988;52.614;13.500;2023-05-24T11:51:29;20.80;99.90
13835;DHT22;6988;52.614;13.500;2023-05-24T11:56:24;20.10;99.90
13835;DHT22;6988;52.614;13.500;2023-05-24T12:01:24;19.20;99.90
13835;DHT22;6988;52.614;13.500;2023-05-24T12:06:17;18.90;99.90
13835;DHT22;6988;52.614;13.500;2023-05-24T12:11:09;18.80;99.90
13835;DHT22;6988;52.614;13.500;2023-05-24T12:16:03;18.80;99.90
13835;DHT22;6988;52.614;13.500;2023-05-24T12:20:55;19.00;99.90
13835;DHT22;6988;52.614;13.500;2023-05-24T12:25:47;19.40;99.90
13835;DHT22;6988;52.614;13.500;2023-05-24T12:30:39;19.40;99.90
13835;DHT22;6988;52.614;13.500;2023-05-24T12:35:34;20.30;99.90
13835;DHT22;6988;52.614;13.500;2023-05-24T12:40:26;20.30;99.90
13835;DHT22;6988;52.614;13.500;2023-05-24T12:45:18;20.20;99.90
13835;DHT22;6988;52.614;13.500;2023-05-24T12:50:12;20.50;99.90
13835;DHT22;6988;52.614;13.500;2023-05-24T12:55:08;20.60;99.90
13835;DHT22;6988;52.614;13.500;2023-05-24T13:00:00;20.70;99.90
13835;DHT22;6988;52.614;13.500;2023-05-24T13:04:56;20.30;99.90
13835;DHT22;6988;52.614;13.500;2023-05-24T13:09:48;19.80;99.90
13835;DHT22;6988;52.614;13.500;2023-05-24T13:14:41;19.70;99.90
13835;DHT22;6988;52.614;13.500;2023-05-24T13:19:33;19.60;99.90
13835;DHT22;6988;52.614;13.500;2023-05-24T13:24:26;19.60;99.90
13835;DHT22;6988;52.614;13.500;2023-05-24T13:29:18;19.90;99.90
13835;DHT22;6988;52.614;13.500;2023-05-24T13:34:12;20.00;99.90
13835;DHT22;6988;52.614;13.500;2023-05-24T13:39:04;20.50;99.90
13835;DHT22;6988;52.614;13.500;2023-05-24T13:43:59;20.90;99.90
13835;DHT22;6988;52.614;13.500;2023-05-24T13:48:51;21.70;99.90
13835;DHT22;6988;52.614;13.500;2023-05-24T13:53:44;22.40;99.90
13835;DHT22;6988;52.614;13.500;2023-05-24T13:58:37;22.40;99.80
13835;DHT22;6988;52.614;13.500;2023-05-24T14:03:32;22.40;99.90
13835;DHT22;6988;52.614;13.500;2023-05-24T14:08:24;22.10;99.90
13835;DHT22;6988;52.614;13.500;2023-05-24T14:13:18;21.70;99.80
13835;DHT22;6988;52.614;13.500;2023-05-24T14:18:10;21.90;99.90
13835;DHT22;6988;52.614;13.500;2023-05-24T14:23:01;22.40;99.20
13835;DHT22;6988;52.614;13.500;2023-05-24T14:27:54;22.40;99.00
13835;DHT22;6988;52.614;13.500;2023-05-24T14:32:47;22.00;98.80
13835;DHT22;6988;52.614;13.500;2023-05-24T14:37:39;21.40;99.70
13835;DHT22;6988;52.614;13.500;2023-05-24T14:42:31;20.90;99.90
13835;DHT22;6988;52.614;13.500;2023-05-24T14:47:23;21.20;99.90
13835;DHT22;6988;52.614;13.500;2023-05-24T14:52:16;21.90;99.90
13835;DHT22;6988;52.614;13.500;2023-05-24T14:57:08;21.80;99.60
13835;DHT22;6988;52.614;13.500;2023-05-24T15:02:00;21.90;99.60
13835;DHT22;6988;52.614;13.500;2023-05-24T15:06:52;21.80;99.50
13835;DHT22;6988;52.614;13.500;2023-05-24T15:11:45;21.60;99.90
13835;DHT22;6988;52.614;13.500;2023-05-24T15:16:37;21.20;99.90
13835;DHT22;6988;52.614;13.500;2023-05-24T15:21:29;21.10;99.90
13835;DHT22;6988;52.614;13.500;2023-05-24T15:26:21;21.20;99.50
13835;DHT22;6988;52.614;13.500;2023-05-24T15:31:14;20.90;99.90
13835;DHT22;6988;52.614;13.500;2023-05-24T15:36:06;20.40;99.90
13835;DHT22;6988;52.614;13.500;2023-05-24T15:40:59;20.50;99.90
13835;DHT22;6988;52.614;13.500;2023-05-24T15:45:52;20.70;99.90
13835;DHT22;6988;52.614;13.500;2023-05-24T15:50:45;21.00;99.70
13835;DHT22;6988;52.614;13.500;2023-05-24T15:55:38;21.00;99.90
13835;DHT22;6988;52.614;13.500;2023-05-24T16:00:30;21.00;99.90
13835;DHT22;6988;52.614;13.500;2023-05-24T16:05:22;21.00;99.90
13835;DHT22;6988;52.614;13.500;2023-05-24T16:10:16;21.10;99.90
13835;DHT22;6988;52.614;13.500;2023-05-24T16:15:09;21.20;99.90
13835;DHT22;6988;52.614;13.500;2023-05-24T16:20:02;21.10;99.90
13835;DHT22;6988;52.614;13.500;2023-05-24T16:24:54;20.90;99.90
13835;DHT22;6988;52.614;13.500;2023-05-24T16:29:47;20.60;99.90
13835;DHT22;6988;52.614;13.500;2023-05-24T16:34:39;20.30;99.90
13835;DHT22;6988;52.614;13.500;2023-05-24T16:39:31;20.10;99.90
13835;DHT22;6988;52.614;13.500;2023-05-24T16:44:26;19.80;99.90
13835;DHT22;6988;52.614;13.500;2023-05-24T16:49:19;19.60;99.90
13835;DHT22;6988;52.614;13.500;2023-05-24T16:54:10;19.30;99.90
13835;DHT22;6988;52.614;13.500;2023-05-24T16:59:03;18.80;99.90
13835;DHT22;6988;52.614;13.500;2023-05-24T17:03:55;18.60;99.90
13835;DHT22;6988;52.614;13.500;2023-05-24T17:08:48;18.40;99.90
13835;DHT22;6988;52.614;13.500;2023-05-24T17:13:40;18.20;99.90
13835;DHT22;6988;52.614;13.500;2023-05-24T17:18:32;18.10;99.90
13835;DHT22;6988;52.614;13.500;2023-05-24T17:23:24;18.00;99.90
13835;DHT22;6988;52.614;13.500;2023-05-24T17:28:18;17.90;99.90
13835;DHT22;6988;52.614;13.500;2023-05-24T17:33:10;17.80;99.90
13835;DHT22;6988;52.614;13.500;2023-05-24T17:38:02;17.70;99.90
13835;DHT22;6988;52.614;13.500;2023-05-24T17:42:54;17.50;99.90
13835;DHT22;6988;52.614;13.500;2023-05-24T17:47:47;17.40;99.90
13835;DHT22;6988;52.614;13.500;2023-05-24T17:52:39;17.20;99.90
13835;DHT22;6988;52.614;13.500;2023-05-24T17:57:31;17.00;99.90
13835;DHT22;6988;52.614;13.500;2023-05-24T18:02:23;16.90;99.90
13835;DHT22;6988;52.614;13.500;2023-05-24T18:07:16;16.80;99.90
13835;DHT22;6988;52.614;13.500;2023-05-24T18:12:08;16.60;99.90
13835;DHT22;6988;52.614;13.500;2023-05-24T18:17:01;16.60;99.90
13835;DHT22;6988;52.614;13.500;2023-05-24T18:21:53;16.50;99.90
13835;DHT22;6988;52.614;13.500;2023-05-24T18:26:46;16.30;99.90
13835;DHT22;6988;52.614;13.500;2023-05-24T18:31:38;16.20;99.90
13835;DHT22;6988;52.614;13.500;2023-05-24T18:36:30;16.00;99.90
13835;DHT22;6988;52.614;13.500;2023-05-24T18:41:24;15.90;99.90
13835;DHT22;6988;52.614;13.500;2023-05-24T18:46:18;15.80;99.90
13835;DHT22;6988;52.614;13.500;2023-05-24T18:51:10;15.60;99.90
13835;DHT22;6988;52.614;13.500;2023-05-24T18:56:02;15.60;99.90
13835;DHT22;6988;52.614;13.500;2023-05-24T19:00:54;15.40;99.90
13835;DHT22;6988;52.614;13.500;2023-05-24T19:05:47;15.30;99.90
13835;DHT22;6988;52.614;13.500;2023-05-24T19:10:38;15.20;99.90
13835;DHT22;6988;52.614;13.500;2023-05-24T19:15:30;15.10;99.90
13835;DHT22;6988;52.614;13.500;2023-05-24T19:20:22;14.90;99.90
13835;DHT22;6988;52.614;13.500;2023-05-24T19:25:16;14.80;99.90
13835;DHT22;6988;52.614;13.500;2023-05-24T19:30:09;14.70;99.90
13835;DHT22;6988;52.614;13.500;2023-05-24T19:35:01;14.60;99.90
13835;DHT22;6988;52.614;13.500;2023-05-24T19:39:53;14.60;99.90
13835;DHT22;6988;52.614;13.500;2023-05-24T19:44:46;14.50;99.90
13835;DHT22;6988;52.614;13.500;2023-05-24T19:49:38;14.40;99.90
13835;DHT22;6988;52.614;13.500;2023-05-24T19:54:29;14.30;99.90
13835;DHT22;6988;52.614;13.500;2023-05-24T19:59:21;14.20;99.90
13835;DHT22;6988;52.614;13.500;2023-05-24T20:04:14;14.20;99.90
13835;DHT22;6988;52.614;13.500;2023-05-24T20:09:06;14.10;99.90
13835;DHT22;6988;52.614;13.500;2023-05-24T20:13:58;14.00;99.90
13835;DHT22;6988;52.614;13.500;2023-05-24T20:18:50;13.90;99.90
13835;DHT22;6988;52.614;13.500;2023-05-24T20:23:43;13.80;99.90
13835;DHT22;6988;52.614;13.500;2023-05-24T20:28:34;13.70;99.90
13835;DHT22;6988;52.614;13.500;2023-05-24T20:33:27;13.60;99.90
13835;DHT22;6988;52.614;13.500;2023-05-24T20:38:20;13.50;99.90
13835;DHT22;6988;52.614;13.500;2023-05-24T20:43:14;13.40;99.90
13835;DHT22;6988;52.614;13.500;2023-05-24T20:48:06;13.30;99.90
13835;DHT22;6988;52.614;13.500;2023-05-24T20:52:57;13.10;99.90
13835;DHT22;6988;52.614;13.500;2023-05-24T20:57:49;12.90;99.90
13835;DHT22;6988;52.614;13.500;2023-05-24T21:02:44;12.90;99.90
13835;DHT22;6988;52.614;13.500;2023-05-24T21:07:36;12.80;99.90
13835;DHT22;6988;52.614;13.500;2023-05-24T21:12:29;12.60;99.90
13835;DHT22;6988;52.614;13.500;2023-05-24T21:17:20;12.50;99.90
13835;DHT22;6988;52.614;13.500;2023-05-24T21:22:14;12.40;99.90
13835;DHT22;6988;52.614;13.500;2023-05-24T21:27:06;12.20;99.90
13835;DHT22;6988;52.614;13.500;2023-05-24T21:31:58;12.10;99.90
13835;DHT22;6988;52.614;13.500;2023-05-24T21:36:49;11.90;99.90
13835;DHT22;6988;52.614;13.500;2023-05-24T21:41:43;11.70;99.90
13835;DHT22;6988;52.614;13.500;2023-05-24T22:04:50;11.20;99.90
13835;DHT22;6988;52.614;13.500;2023-05-24T22:09:42;11.10;99.90
13835;DHT22;6988;52.614;13.500;2023-05-24T22:14:34;11.00;99.90
13835;DHT22;6988;52.614;13.500;2023-05-24T22:19:26;10.90;99.90
13835;DHT22;6988;52.614;13.500;2023-05-24T22:24:22;10.90;99.90
13835;DHT22;6988;52.614;13.500;2023-05-24T22:29:14;10.90;99.90
13835;DHT22;6988;52.614;13.500;2023-05-24T22:34:06;10.90;99.90
13835;DHT22;6988;52.614;13.500;2023-05-24T22:38:58;10.90;99.90
13835;DHT22;6988;52.614;13.500;2023-05-24T22:43:52;10.90;99.90
13835;DHT22;6988;52.614;13.500;2023-05-24T22:48:44;10.90;99.90
13835;DHT22;6988;52.614;13.500;2023-05-24T22:53:39;10.90;99.90
13835;DHT22;6988;52.614;13.500;2023-05-24T22:58:31;10.90;99.90
13835;DHT22;6988;52.614;13.500;2023-05-24T23:03:24;10.90;99.90
13835;DHT22;6988;52.614;13.500;2023-05-24T23:08:16;10.90;99.90
13835;DHT22;6988;52.614;13.500;2023-05-24T23:13:07;10.90;99.90
13835;DHT22;6988;52.614;13.500;2023-05-24T23:17:59;10.90;99.90
13835;DHT22;6988;52.614;13.500;2023-05-24T23:22:54;10.80;99.90
13835;DHT22;6988;52.614;13.500;2023-05-24T23:27:48;10.80;99.90
13835;DHT22;6988;52.614;13.500;2023-05-24T23:32:40;10.80;99.90
13835;DHT22;6988;52.614;13.500;2023-05-24T23:37:32;10.80;99.90
13835;DHT22;6988;52.614;13.500;2023-05-24T23:42:25;10.90;99.90
13835;DHT22;6988;52.614;13.500;2023-05-24T23:47:17;10.90;99.90
13835;DHT22;6988;52.614;13.500;2023-05-24T23:52:09;10.90;99.90
13835;DHT22;6988;52.614;13.500;2023-05-24T23:57:01;10.90;99.90
